sensor_id;sensor_type;location;lat;lon;timestamp;pressure;altitude;pressure_sealevel;temperature;humidity
43119;BME280;28729;49.838;8.650;2023-12-04T00:00:07;99975.66;;;-1.79;100.00
43119;BME280;28729;49.838;8.650;2023-12-04T00:04:15;99967.38;;;-1.86;100.00
43119;BME280;28729;49.838;8.650;2023-12-04T00:08:17;99966.00;;;-1.98;100.00
43119;BME280;28729;49.838;8.650;2023-12-04T00:12:22;99969.84;;;-2.09;100.00
43119;BME280;28729;49.838;8.650;2023-12-04T00:16:24;99971.19;;;-2.13;100.00
43119;BME280;28729;49.838;8.650;2023-12-04T00:20:26;99963.56;;;-2.18;100.00
43119;BME280;28729;49.838;8.650;2023-12-04T00:24:28;99956.09;;;-2.32;100.00
43119;BME280;28729;49.838;8.650;2023-12-04T00:28:31;99948.84;;;-2.40;100.00
43119;BME280;28729;49.838;8.650;2023-12-04T00:32:33;99942.91;;;-2.43;100.00
43119;BME280;28729;49.838;8.650;2023-12-04T00:36:36;99935.31;;;-2.48;100.00
43119;BME280;28729;49.838;8.650;2023-12-04T00:40:38;99926.84;;;-2.53;100.00
43119;BME280;28729;49.838;8.650;2023-12-04T00:44:42;99921.75;;;-2.56;100.00
43119;BME280;28729;49.838;8.650;2023-12-04T00:48:44;99922.78;;;-2.57;100.00
43119;BME280;28729;49.838;8.650;2023-12-04T00:52:49;99914.53;;;-2.56;100.00
43119;BME280;28729;49.838;8.650;2023-12-04T00:56:52;99916.38;;;-2.56;100.00
43119;BME280;28729;49.838;8.650;2023-12-04T01:00:55;99912.69;;;-2.55;100.00
43119;BME280;28729;49.838;8.650;2023-12-04T01:04:58;99900.72;;;-2.53;100.00
43119;BME280;28729;49.838;8.650;2023-12-04T01:09:02;99900.72;;;-2.53;100.00
43119;BME280;28729;49.838;8.650;2023-12-04T01:13:04;99893.63;;;-2.54;100.00
43119;BME280;28729;49.838;8.650;2023-12-04T01:17:08;99887.38;;;-2.54;100.00
43119;BME280;28729;49.838;8.650;2023-12-04T01:21:11;99879.97;;;-2.52;100.00
43119;BME280;28729;49.838;8.650;2023-12-04T01:25:13;99879.81;;;-2.50;100.00
43119;BME280;28729;49.838;8.650;2023-12-04T01:29:15;99873.09;;;-2.46;100.00
43119;BME280;28729;49.838;8.650;2023-12-04T01:33:17;99866.53;;;-2.44;100.00
43119;BME280;28729;49.838;8.650;2023-12-04T01:37:19;99870.22;;;-2.45;100.00
43119;BME280;28729;49.838;8.650;2023-12-04T01:41:21;99864.81;;;-2.45;100.00
43119;BME280;28729;49.838;8.650;2023-12-04T01:45:23;99868.34;;;-2.44;100.00
43119;BME280;28729;49.838;8.650;2023-12-04T01:49:26;99864.66;;;-2.43;100.00
43119;BME280;28729;49.838;8.650;2023-12-04T01:53:28;99866.53;;;-2.44;100.00
43119;BME280;28729;49.838;8.650;2023-12-04T01:57:34;99852.00;;;-2.43;100.00
43119;BME280;28729;49.838;8.650;2023-12-04T02:01:37;99861.13;;;-2.44;100.00
43119;BME280;28729;49.838;8.650;2023-12-04T02:05:40;99859.75;;;-2.48;100.00
43119;BME280;28729;49.838;8.650;2023-12-04T02:09:45;99855.03;;;-2.46;100.00
43119;BME280;28729;49.838;8.650;2023-12-04T02:13:51;99853.50;;;-2.48;100.00
43119;BME280;28729;49.838;8.650;2023-12-04T02:17:53;99853.66;;;-2.50;100.00
43119;BME280;28729;49.838;8.650;2023-12-04T02:21:57;99852.16;;;-2.53;100.00
43119;BME280;28729;49.838;8.650;2023-12-04T02:26:01;99847.28;;;-2.49;100.00
43119;BME280;28729;49.838;8.650;2023-12-04T02:30:06;99840.38;;;-2.43;100.00
43119;BME280;28729;49.838;8.650;2023-12-04T02:34:10;99831.44;;;-2.36;100.00
43119;BME280;28729;49.838;8.650;2023-12-04T02:38:15;99832.81;;;-2.32;100.00
43119;BME280;28729;49.838;8.650;2023-12-04T02:42:18;99822.34;;;-2.26;100.00
43119;BME280;28729;49.838;8.650;2023-12-04T02:46:21;99809.88;;;-2.27;100.00
43119;BME280;28729;49.838;8.650;2023-12-04T02:50:24;99807.34;;;-2.29;100.00
43119;BME280;28729;49.838;8.650;2023-12-04T02:54:26;99802.09;;;-2.31;100.00
43119;BME280;28729;49.838;8.650;2023-12-04T02:58:30;99802.25;;;-2.32;100.00
43119;BME280;28729;49.838;8.650;2023-12-04T03:02:32;99788.09;;;-2.34;100.00
43119;BME280;28729;49.838;8.650;2023-12-04T03:06:34;99785.41;;;-2.34;100.00
43119;BME280;28729;49.838;8.650;2023-12-04T03:10:39;99779.16;;;-2.35;100.00
43119;BME280;28729;49.838;8.650;2023-12-04T03:14:41;99768.19;;;-2.33;100.00
43119;BME280;28729;49.838;8.650;2023-12-04T03:18:48;99761.13;;;-2.34;100.00
43119;BME280;28729;49.838;8.650;2023-12-04T03:22:51;99756.88;;;-2.37;100.00
43119;BME280;28729;49.838;8.650;2023-12-04T03:26:54;99756.22;;;-2.39;100.00
43119;BME280;28729;49.838;8.650;2023-12-04T03:30:56;99735.31;;;-2.37;100.00
43119;BME280;28729;49.838;8.650;2023-12-04T03:34:58;99732.59;;;-2.37;100.00
43119;BME280;28729;49.838;8.650;2023-12-04T03:38:59;99730.41;;;-2.33;100.00
43119;BME280;28729;49.838;8.650;2023-12-04T03:43:03;99721.81;;;-2.28;100.00
43119;BME280;28729;49.838;8.650;2023-12-04T03:47:05;99712.53;;;-2.26;100.00
43119;BME280;28729;49.838;8.650;2023-12-04T03:51:09;99712.69;;;-2.27;100.00
43119;BME280;28729;49.838;8.650;2023-12-04T03:55:11;99698.50;;;-2.30;100.00
43119;BME280;28729;49.838;8.650;2023-12-04T03:59:13;99701.56;;;-2.33;100.00
43119;BME280;28729;49.838;8.650;2023-12-04T04:03:15;99702.41;;;-2.32;100.00
43119;BME280;28729;49.838;8.650;2023-12-04T04:07:17;99695.16;;;-2.32;100.00
43119;BME280;28729;49.838;8.650;2023-12-04T04:11:20;99688.41;;;-2.27;100.00
43119;BME280;28729;49.838;8.650;2023-12-04T04:15:23;99686.88;;;-2.22;100.00
43119;BME280;28729;49.838;8.650;2023-12-04T04:19:26;99689.94;;;-2.17;100.00
43119;BME280;28729;49.838;8.650;2023-12-04T04:23:29;99695.81;;;-2.13;100.00
43119;BME280;28729;49.838;8.650;2023-12-04T04:27:31;99698.50;;;-2.05;100.00
43119;BME280;28729;49.838;8.650;2023-12-04T04:31:36;99690.22;;;-2.03;100.00
43119;BME280;28729;49.838;8.650;2023-12-04T04:35:42;99687.53;;;-2.03;100.00
43119;BME280;28729;49.838;8.650;2023-12-04T04:39:44;99682.81;;;-2.01;100.00
43119;BME280;28729;49.838;8.650;2023-12-04T04:43:46;99688.34;;;-1.95;100.00
43119;BME280;28729;49.838;8.650;2023-12-04T04:47:48;99678.88;;;-1.91;100.00
43119;BME280;28729;49.838;8.650;2023-12-04T04:51:58;99681.91;;;-1.86;100.00
43119;BME280;28729;49.838;8.650;2023-12-04T04:56:00;99675.31;;;-1.83;100.00
43119;BME280;28729;49.838;8.650;2023-12-04T05:00:03;99664.34;;;-1.81;100.00
43119;BME280;28729;49.838;8.650;2023-12-04T05:04:06;99656.22;;;-1.81;100.00
43119;BME280;28729;49.838;8.650;2023-12-04T05:08:08;99667.03;;;-1.81;100.00
43119;BME280;28729;49.838;8.650;2023-12-04T05:12:10;99661.97;;;-1.85;100.00
43119;BME280;28729;49.838;8.650;2023-12-04T05:16:13;99662.66;;;-1.83;99.74
43119;BME280;28729;49.838;8.650;2023-12-04T05:20:15;99655.91;;;-1.78;99.36
43119;BME280;28729;49.838;8.650;2023-12-04T05:24:17;99655.59;;;-1.84;99.34
43119;BME280;28729;49.838;8.650;2023-12-04T05:28:19;99656.94;;;-1.88;100.00
43119;BME280;28729;49.838;8.650;2023-12-04T05:32:21;99661.00;;;-1.92;100.00
43119;BME280;28729;49.838;8.650;2023-12-04T05:36:27;99647.00;;;-1.95;100.00
43119;BME280;28729;49.838;8.650;2023-12-04T05:40:29;99647.84;;;-2.03;100.00
43119;BME280;28729;49.838;8.650;2023-12-04T05:44:31;99639.28;;;-2.07;100.00
43119;BME280;28729;49.838;8.650;2023-12-04T05:48:34;99631.34;;;-2.08;100.00
43119;BME280;28729;49.838;8.650;2023-12-04T05:52:36;99609.59;;;-2.15;100.00
43119;BME280;28729;49.838;8.650;2023-12-04T05:56:39;99609.78;;;-2.16;100.00
43119;BME280;28729;49.838;8.650;2023-12-04T06:00:40;99605.69;;;-2.12;100.00
43119;BME280;28729;49.838;8.650;2023-12-04T06:04:43;99610.25;;;-2.13;100.00
43119;BME280;28729;49.838;8.650;2023-12-04T06:08:45;99611.09;;;-2.12;100.00
43119;BME280;28729;49.838;8.650;2023-12-04T06:12:48;99623.59;;;-2.11;100.00
43119;BME280;28729;49.838;8.650;2023-12-04T06:16:56;99633.72;;;-2.21;100.00
43119;BME280;28729;49.838;8.650;2023-12-04T06:20:59;99640.16;;;-2.22;100.00
43119;BME280;28729;49.838;8.650;2023-12-04T06:25:01;99637.13;;;-2.19;100.00
43119;BME280;28729;49.838;8.650;2023-12-04T06:29:05;99634.72;;;-2.14;100.00
43119;BME280;28729;49.838;8.650;2023-12-04T06:33:08;99630.00;;;-2.12;100.00
43119;BME280;28729;49.838;8.650;2023-12-04T06:37:11;99608.41;;;-2.12;100.00
43119;BME280;28729;49.838;8.650;2023-12-04T06:41:14;99611.09;;;-2.04;100.00
43119;BME280;28729;49.838;8.650;2023-12-04T06:45:17;99615.66;;;-2.04;100.00
43119;BME280;28729;49.838;8.650;2023-12-04T06:49:20;99611.22;;;-1.97;100.00
43119;BME280;28729;49.838;8.650;2023-12-04T06:53:23;99585.56;;;-1.93;100.00
43119;BME280;28729;49.838;8.650;2023-12-04T06:57:27;99578.97;;;-1.91;100.00
43119;BME280;28729;49.838;8.650;2023-12-04T07:01:30;99556.34;;;-1.90;100.00
43119;BME280;28729;49.838;8.650;2023-12-04T07:05:32;99548.88;;;-1.79;100.00
43119;BME280;28729;49.838;8.650;2023-12-04T07:09:36;99536.72;;;-1.75;100.00
43119;BME280;28729;49.838;8.650;2023-12-04T07:13:40;99545.94;;;-1.70;99.32
43119;BME280;28729;49.838;8.650;2023-12-04T07:17:44;99553.97;;;-1.53;99.33
43119;BME280;28729;49.838;8.650;2023-12-04T07:21:48;99553.56;;;-1.42;98.37
43119;BME280;28729;49.838;8.650;2023-12-04T07:25:50;99543.19;;;-1.30;98.22
43119;BME280;28729;49.838;8.650;2023-12-04T07:29:54;99532.13;;;-1.21;98.62
43119;BME280;28729;49.838;8.650;2023-12-04T07:33:56;99521.72;;;-1.09;98.38
43119;BME280;28729;49.838;8.650;2023-12-04T07:37:59;99512.19;;;-1.05;97.02
43119;BME280;28729;49.838;8.650;2023-12-04T07:42:01;99506.25;;;-1.00;95.57
43119;BME280;28729;49.838;8.650;2023-12-04T07:46:13;99515.31;;;-0.93;93.19
43119;BME280;28729;49.838;8.650;2023-12-04T07:50:16;99508.25;;;-0.79;93.09
43119;BME280;28729;49.838;8.650;2023-12-04T07:54:26;99514.59;;;-0.72;91.60
43119;BME280;28729;49.838;8.650;2023-12-04T07:58:30;99504.53;;;-0.63;91.17
43119;BME280;28729;49.838;8.650;2023-12-04T08:02:33;99501.19;;;-0.51;91.33
43119;BME280;28729;49.838;8.650;2023-12-04T08:06:37;99488.59;;;-0.43;91.03
43119;BME280;28729;49.838;8.650;2023-12-04T08:10:40;99492.97;;;-0.42;89.08
43119;BME280;28729;49.838;8.650;2023-12-04T08:14:41;99491.69;;;-0.32;88.87
43119;BME280;28729;49.838;8.650;2023-12-04T08:18:45;99499.50;;;-0.22;87.86
43119;BME280;28729;49.838;8.650;2023-12-04T08:22:50;99496.34;;;-0.11;87.84
43119;BME280;28729;49.838;8.650;2023-12-04T08:26:53;99500.44;;;0.00;86.88
43119;BME280;28729;49.838;8.650;2023-12-04T08:30:56;99482.66;;;0.12;85.60
43119;BME280;28729;49.838;8.650;2023-12-04T08:34:58;99469.88;;;0.06;85.78
43119;BME280;28729;49.838;8.650;2023-12-04T08:39:02;99452.41;;;-0.06;86.47
43119;BME280;28729;49.838;8.650;2023-12-04T08:43:09;99459.53;;;-0.05;86.57
43119;BME280;28729;49.838;8.650;2023-12-04T08:47:13;99458.03;;;-0.08;87.45
43119;BME280;28729;49.838;8.650;2023-12-04T08:51:17;99459.09;;;-0.09;87.45
43119;BME280;28729;49.838;8.650;2023-12-04T08:55:19;99471.66;;;-0.01;87.94
43119;BME280;28729;49.838;8.650;2023-12-04T08:59:22;99448.47;;;0.11;87.70
43119;BME280;28729;49.838;8.650;2023-12-04T09:03:24;99457.84;;;0.30;87.43
43119;BME280;28729;49.838;8.650;2023-12-04T09:07:35;99442.81;;;0.49;87.51
43119;BME280;28729;49.838;8.650;2023-12-04T09:11:42;99450.19;;;0.55;86.68
43119;BME280;28729;49.838;8.650;2023-12-04T09:15:44;99451.28;;;0.61;86.55
43119;BME280;28729;49.838;8.650;2023-12-04T09:19:50;99443.59;;;0.64;86.20
43119;BME280;28729;49.838;8.650;2023-12-04T09:23:52;99450.94;;;0.71;86.63
43119;BME280;28729;49.838;8.650;2023-12-04T09:27:54;99459.28;;;0.69;85.74
43119;BME280;28729;49.838;8.650;2023-12-04T09:31:57;99471.91;;;0.62;85.49
43119;BME280;28729;49.838;8.650;2023-12-04T09:35:59;99473.28;;;0.51;85.80
43119;BME280;28729;49.838;8.650;2023-12-04T09:40:02;99468.00;;;0.43;86.77
43119;BME280;28729;49.838;8.650;2023-12-04T09:44:06;99458.91;;;0.51;87.32
43119;BME280;28729;49.838;8.650;2023-12-04T09:48:10;99440.56;;;0.53;87.52
43119;BME280;28729;49.838;8.650;2023-12-04T09:52:14;99447.06;;;0.58;87.61
43119;BME280;28729;49.838;8.650;2023-12-04T09:56:20;99453.94;;;0.54;86.42
43119;BME280;28729;49.838;8.650;2023-12-04T10:00:24;99453.84;;;0.48;87.30
43119;BME280;28729;49.838;8.650;2023-12-04T10:04:27;99447.34;;;0.42;86.94
43119;BME280;28729;49.838;8.650;2023-12-04T10:08:30;99455.53;;;0.49;88.47
43119;BME280;28729;49.838;8.650;2023-12-04T10:12:32;99457.25;;;0.56;87.57
43119;BME280;28729;49.838;8.650;2023-12-04T10:16:39;99445.63;;;0.62;88.05
43119;BME280;28729;49.838;8.650;2023-12-04T10:20:51;99444.56;;;0.78;87.80
43119;BME280;28729;49.838;8.650;2023-12-04T10:24:55;99446.75;;;0.89;87.54
43119;BME280;28729;49.838;8.650;2023-12-04T10:29:03;99434.59;;;1.13;87.42
43119;BME280;28729;49.838;8.650;2023-12-04T10:33:08;99448.25;;;1.27;84.18
43119;BME280;28729;49.838;8.650;2023-12-04T10:37:15;99439.31;;;1.33;84.04
43119;BME280;28729;49.838;8.650;2023-12-04T10:41:17;99424.09;;;1.39;82.78
43119;BME280;28729;49.838;8.650;2023-12-04T10:45:20;99422.41;;;1.31;81.73
43119;BME280;28729;49.838;8.650;2023-12-04T10:49:30;99435.97;;;1.31;81.29
43119;BME280;28729;49.838;8.650;2023-12-04T10:53:33;99436.75;;;1.25;79.96
43119;BME280;28729;49.838;8.650;2023-12-04T10:57:39;99434.50;;;1.28;80.75
43119;BME280;28729;49.838;8.650;2023-12-04T11:01:48;99427.94;;;1.16;80.96
43119;BME280;28729;49.838;8.650;2023-12-04T11:05:56;99422.00;;;1.06;82.32
43119;BME280;28729;49.838;8.650;2023-12-04T11:10:06;99402.59;;;1.02;82.84
43119;BME280;28729;49.838;8.650;2023-12-04T11:14:11;99395.53;;;1.08;82.37
43119;BME280;28729;49.838;8.650;2023-12-04T11:18:21;99380.91;;;1.09;82.15
43119;BME280;28729;49.838;8.650;2023-12-04T11:22:25;99375.47;;;1.09;82.02
43119;BME280;28729;49.838;8.650;2023-12-04T11:26:29;99347.75;;;1.13;82.59
43119;BME280;28729;49.838;8.650;2023-12-04T11:30:31;99351.31;;;1.14;83.66
43119;BME280;28729;49.838;8.650;2023-12-04T11:34:35;99337.75;;;1.14;84.53
43119;BME280;28729;49.838;8.650;2023-12-04T11:38:45;99317.03;;;1.13;85.84
43119;BME280;28729;49.838;8.650;2023-12-04T11:42:52;99317.25;;;1.05;87.26
43119;BME280;28729;49.838;8.650;2023-12-04T11:46:56;99317.41;;;0.97;89.43
43119;BME280;28729;49.838;8.650;2023-12-04T11:50:59;99299.00;;;0.92;91.09
43119;BME280;28729;49.838;8.650;2023-12-04T11:55:04;99278.16;;;0.93;92.13
43119;BME280;28729;49.838;8.650;2023-12-04T11:59:09;99277.69;;;0.89;93.81
43119;BME280;28729;49.838;8.650;2023-12-04T12:03:14;99253.91;;;0.84;95.29
43119;BME280;28729;49.838;8.650;2023-12-04T12:07:24;99244.72;;;0.85;95.13
43119;BME280;28729;49.838;8.650;2023-12-04T12:11:26;99233.88;;;0.92;94.57
43119;BME280;28729;49.838;8.650;2023-12-04T12:15:28;99231.84;;;1.01;95.93
43119;BME280;28729;49.838;8.650;2023-12-04T12:19:31;99222.47;;;1.03;95.87
43119;BME280;28729;49.838;8.650;2023-12-04T12:23:34;99216.47;;;1.21;96.31
43119;BME280;28729;49.838;8.650;2023-12-04T12:27:38;99201.72;;;1.37;96.29
43119;BME280;28729;49.838;8.650;2023-12-04T12:31:42;99202.56;;;1.44;96.26
43119;BME280;28729;49.838;8.650;2023-12-04T12:35:44;99187.91;;;1.39;95.81
43119;BME280;28729;49.838;8.650;2023-12-04T12:40:03;99173.28;;;1.33;96.32
43119;BME280;28729;49.838;8.650;2023-12-04T12:44:06;99158.06;;;1.39;98.12
43119;BME280;28729;49.838;8.650;2023-12-04T12:48:12;99139.69;;;1.54;97.99
43119;BME280;28729;49.838;8.650;2023-12-04T12:52:15;99126.97;;;1.68;97.95
43119;BME280;28729;49.838;8.650;2023-12-04T12:56:21;99111.69;;;1.80;97.74
43119;BME280;28729;49.838;8.650;2023-12-04T13:00:23;99096.03;;;1.89;99.48
43119;BME280;28729;49.838;8.650;2023-12-04T13:04:47;99087.44;;;1.92;99.44
43119;BME280;28729;49.838;8.650;2023-12-04T13:08:49;99084.09;;;1.90;100.00
43119;BME280;28729;49.838;8.650;2023-12-04T13:12:53;99078.66;;;1.90;100.00
43119;BME280;28729;49.838;8.650;2023-12-04T13:17:02;99074.69;;;1.92;100.00
43119;BME280;28729;49.838;8.650;2023-12-04T13:21:06;99064.47;;;1.94;100.00
43119;BME280;28729;49.838;8.650;2023-12-04T13:25:12;99057.53;;;1.98;100.00
43119;BME280;28729;49.838;8.650;2023-12-04T13:29:15;99056.50;;;1.99;100.00
43119;BME280;28729;49.838;8.650;2023-12-04T13:33:19;99050.22;;;2.05;100.00
43119;BME280;28729;49.838;8.650;2023-12-04T13:37:20;99045.63;;;2.06;100.00
43119;BME280;28729;49.838;8.650;2023-12-04T13:41:26;99040.19;;;2.06;100.00
43119;BME280;28729;49.838;8.650;2023-12-04T13:45:48;99037.25;;;2.08;100.00
43119;BME280;28729;49.838;8.650;2023-12-04T13:49:50;99034.31;;;2.09;100.00
43119;BME280;28729;49.838;8.650;2023-12-04T13:53:54;99032.63;;;2.08;100.00
43119;BME280;28729;49.838;8.650;2023-12-04T13:58:11;99019.66;;;2.10;100.00
43119;BME280;28729;49.838;8.650;2023-12-04T14:02:45;99008.81;;;2.10;100.00
43119;BME280;28729;49.838;8.650;2023-12-04T14:06:47;98997.34;;;2.01;100.00
43119;BME280;28729;49.838;8.650;2023-12-04T14:10:50;98998.41;;;1.94;100.00
43119;BME280;28729;49.838;8.650;2023-12-04T14:14:58;98996.97;;;1.78;100.00
43119;BME280;28729;49.838;8.650;2023-12-04T14:19:00;99002.88;;;1.62;100.00
43119;BME280;28729;49.838;8.650;2023-12-04T14:23:03;98998.72;;;1.46;100.00
43119;BME280;28729;49.838;8.650;2023-12-04T14:27:07;98992.66;;;1.30;100.00
43119;BME280;28729;49.838;8.650;2023-12-04T14:31:10;98989.97;;;1.30;100.00
43119;BME280;28729;49.838;8.650;2023-12-04T14:35:14;98972.41;;;1.33;100.00
43119;BME280;28729;49.838;8.650;2023-12-04T14:39:17;98962.63;;;1.32;100.00
43119;BME280;28729;49.838;8.650;2023-12-04T14:43:21;98961.78;;;1.31;100.00
43119;BME280;28729;49.838;8.650;2023-12-04T14:47:25;98961.78;;;1.31;100.00
43119;BME280;28729;49.838;8.650;2023-12-04T14:51:28;98957.22;;;1.25;100.00
43119;BME280;28729;49.838;8.650;2023-12-04T14:55:31;98957.81;;;1.27;100.00
43119;BME280;28729;49.838;8.650;2023-12-04T15:00:10;98949.25;;;1.30;100.00
43119;BME280;28729;49.838;8.650;2023-12-04T15:04:12;98951.97;;;1.30;100.00
43119;BME280;28729;49.838;8.650;2023-12-04T15:08:34;98946.13;;;1.27;100.00
43119;BME280;28729;49.838;8.650;2023-12-04T15:12:45;98936.94;;;1.28;100.00
43119;BME280;28729;49.838;8.650;2023-12-04T15:17:07;98922.13;;;1.24;100.00
43119;BME280;28729;49.838;8.650;2023-12-04T15:21:28;98913.13;;;1.30;100.00
43119;BME280;28729;49.838;8.650;2023-12-04T15:25:31;98906.25;;;1.34;100.00
43119;BME280;28729;49.838;8.650;2023-12-04T15:29:35;98894.97;;;1.37;100.00
43119;BME280;28729;49.838;8.650;2023-12-04T15:33:37;98889.97;;;1.34;100.00
43119;BME280;28729;49.838;8.650;2023-12-04T15:37:40;98885.38;;;1.21;100.00
43119;BME280;28729;49.838;8.650;2023-12-04T15:41:42;98885.22;;;1.16;100.00
43119;BME280;28729;49.838;8.650;2023-12-04T15:45:43;98881.44;;;1.17;100.00
43119;BME280;28729;49.838;8.650;2023-12-04T15:49:46;98868.69;;;1.24;100.00
43119;BME280;28729;49.838;8.650;2023-12-04T15:53:49;98867.22;;;1.28;100.00
43119;BME280;28729;49.838;8.650;2023-12-04T15:57:55;98864.25;;;1.36;100.00
43119;BME280;28729;49.838;8.650;2023-12-04T16:01:57;98856.09;;;1.36;100.00
43119;BME280;28729;49.838;8.650;2023-12-04T16:06:05;98860.50;;;1.38;100.00
43119;BME280;28729;49.838;8.650;2023-12-04T16:10:10;98861.09;;;1.40;100.00
43119;BME280;28729;49.838;8.650;2023-12-04T16:14:15;98850.88;;;1.42;100.00
43119;BME280;28729;49.838;8.650;2023-12-04T16:18:19;98841.88;;;1.48;100.00
43119;BME280;28729;49.838;8.650;2023-12-04T16:22:21;98843.34;;;1.50;100.00
43119;BME280;28729;49.838;8.650;2023-12-04T16:26:30;98840.63;;;1.50;100.00
43119;BME280;28729;49.838;8.650;2023-12-04T16:30:33;98845.22;;;1.50;100.00
43119;BME280;28729;49.838;8.650;2023-12-04T16:34:35;98845.00;;;1.58;100.00
43119;BME280;28729;49.838;8.650;2023-12-04T16:38:37;98837.63;;;1.65;100.00
43119;BME280;28729;49.838;8.650;2023-12-04T16:42:40;98838.47;;;1.66;100.00
43119;BME280;28729;49.838;8.650;2023-12-04T16:46:44;98837.88;;;1.64;100.00
43119;BME280;28729;49.838;8.650;2023-12-04T16:50:46;98833.06;;;1.59;100.00
43119;BME280;28729;49.838;8.650;2023-12-04T16:54:48;98821.16;;;1.60;100.00
43119;BME280;28729;49.838;8.650;2023-12-04T16:58:53;98808.59;;;1.66;100.00
43119;BME280;28729;49.838;8.650;2023-12-04T17:02:55;98808.34;;;1.74;100.00
43119;BME280;28729;49.838;8.650;2023-12-04T17:06:57;98791.81;;;1.75;100.00
43119;BME280;28729;49.838;8.650;2023-12-04T17:11:00;98783.22;;;1.78;100.00
43119;BME280;28729;49.838;8.650;2023-12-04T17:15:03;98776.75;;;1.79;100.00
43119;BME280;28729;49.838;8.650;2023-12-04T17:19:06;98770.44;;;1.86;100.00
43119;BME280;28729;49.838;8.650;2023-12-04T17:23:13;98768.81;;;1.85;100.00
43119;BME280;28729;49.838;8.650;2023-12-04T17:27:20;98762.78;;;1.76;100.00
43119;BME280;28729;49.838;8.650;2023-12-04T17:31:23;98763.00;;;1.74;100.00
43119;BME280;28729;49.838;8.650;2023-12-04T17:35:25;98759.47;;;1.74;100.00
43119;BME280;28729;49.838;8.650;2023-12-04T17:39:27;98760.34;;;1.68;100.00
43119;BME280;28729;49.838;8.650;2023-12-04T17:43:29;98752.38;;;1.66;100.00
43119;BME280;28729;49.838;8.650;2023-12-04T17:47:34;98755.72;;;1.68;100.00
43119;BME280;28729;49.838;8.650;2023-12-04T17:51:36;98753.19;;;1.73;100.00
43119;BME280;28729;49.838;8.650;2023-12-04T17:55:38;98740.19;;;1.82;100.00
43119;BME280;28729;49.838;8.650;2023-12-04T17:59:41;98750.81;;;1.83;100.00
43119;BME280;28729;49.838;8.650;2023-12-04T18:03:43;98745.81;;;1.80;100.00
43119;BME280;28729;49.838;8.650;2023-12-04T18:07:45;98734.47;;;1.90;100.00
43119;BME280;28729;49.838;8.650;2023-12-04T18:11:47;98736.34;;;1.96;100.00
43119;BME280;28729;49.838;8.650;2023-12-04T18:15:49;98733.56;;;2.03;100.00
43119;BME280;28729;49.838;8.650;2023-12-04T18:19:51;98723.69;;;2.09;100.00
43119;BME280;28729;49.838;8.650;2023-12-04T18:23:55;98717.56;;;2.13;100.00
43119;BME280;28729;49.838;8.650;2023-12-04T18:28:01;98715.03;;;2.18;100.00
43119;BME280;28729;49.838;8.650;2023-12-04T18:32:08;98700.59;;;2.18;100.00
43119;BME280;28729;49.838;8.650;2023-12-04T18:36:12;98694.72;;;2.21;100.00
43119;BME280;28729;49.838;8.650;2023-12-04T18:40:15;98686.34;;;2.22;100.00
43119;BME280;28729;49.838;8.650;2023-12-04T18:44:17;98689.44;;;2.26;100.00
43119;BME280;28729;49.838;8.650;2023-12-04T18:48:20;98691.19;;;2.20;100.00
43119;BME280;28729;49.838;8.650;2023-12-04T18:52:26;98680.75;;;2.17;100.00
43119;BME280;28729;49.838;8.650;2023-12-04T18:56:29;98683.25;;;2.19;100.00
43119;BME280;28729;49.838;8.650;2023-12-04T19:00:33;98674.88;;;2.20;100.00
43119;BME280;28729;49.838;8.650;2023-12-04T19:04:39;98679.69;;;2.18;100.00
43119;BME280;28729;49.838;8.650;2023-12-04T19:08:42;98671.53;;;2.18;100.00
43119;BME280;28729;49.838;8.650;2023-12-04T19:12:44;98674.44;;;2.23;100.00
43119;BME280;28729;49.838;8.650;2023-12-04T19:16:46;98667.47;;;2.27;100.00
43119;BME280;28729;49.838;8.650;2023-12-04T19:20:48;98663.25;;;2.32;100.00
43119;BME280;28729;49.838;8.650;2023-12-04T19:24:50;98670.03;;;2.22;100.00
43119;BME280;28729;49.838;8.650;2023-12-04T19:28:53;98666.31;;;2.17;100.00
43119;BME280;28729;49.838;8.650;2023-12-04T19:32:55;98654.16;;;2.19;100.00
43119;BME280;28729;49.838;8.650;2023-12-04T19:36:57;98632.44;;;2.19;100.00
43119;BME280;28729;49.838;8.650;2023-12-04T19:40:58;98644.91;;;2.27;100.00
43119;BME280;28729;49.838;8.650;2023-12-04T19:45:00;98648.44;;;2.27;100.00
43119;BME280;28729;49.838;8.650;2023-12-04T19:49:02;98651.00;;;2.22;100.00
43119;BME280;28729;49.838;8.650;2023-12-04T19:53:04;98658.34;;;2.22;100.00
43119;BME280;28729;49.838;8.650;2023-12-04T19:57:07;98653.13;;;2.20;100.00
43119;BME280;28729;49.838;8.650;2023-12-04T20:01:09;98646.19;;;2.24;100.00
43119;BME280;28729;49.838;8.650;2023-12-04T20:05:20;98650.56;;;2.25;100.00
43119;BME280;28729;49.838;8.650;2023-12-04T20:09:23;98647.00;;;2.25;100.00
43119;BME280;28729;49.838;8.650;2023-12-04T20:13:28;98640.28;;;2.27;100.00
43119;BME280;28729;49.838;8.650;2023-12-04T20:17:31;98633.22;;;2.26;100.00
43119;BME280;28729;49.838;8.650;2023-12-04T20:21:32;98636.75;;;2.27;100.00
43119;BME280;28729;49.838;8.650;2023-12-04T20:25:35;98628.97;;;2.31;100.00
43119;BME280;28729;49.838;8.650;2023-12-04T20:29:37;98626.88;;;2.33;100.00
43119;BME280;28729;49.838;8.650;2023-12-04T20:33:46;98614.31;;;2.32;100.00
43119;BME280;28729;49.838;8.650;2023-12-04T20:37:51;98601.94;;;2.36;100.00
43119;BME280;28729;49.838;8.650;2023-12-04T20:41:54;98608.81;;;2.38;100.00
43119;BME280;28729;49.838;8.650;2023-12-04T20:46:00;98593.72;;;2.42;100.00
43119;BME280;28729;49.838;8.650;2023-12-04T20:50:05;98593.72;;;2.42;100.00
43119;BME280;28729;49.838;8.650;2023-12-04T20:54:12;98578.22;;;2.43;100.00
43119;BME280;28729;49.838;8.650;2023-12-04T20:58:16;98577.78;;;2.46;100.00
43119;BME280;28729;49.838;8.650;2023-12-04T21:02:19;98569.41;;;2.47;100.00
43119;BME280;28729;49.838;8.650;2023-12-04T21:06:21;98572.13;;;2.47;100.00
43119;BME280;28729;49.838;8.650;2023-12-04T21:10:23;98568.63;;;2.40;100.00
43119;BME280;28729;49.838;8.650;2023-12-04T21:14:25;98567.66;;;2.35;100.00
43119;BME280;28729;49.838;8.650;2023-12-04T21:18:33;98563.88;;;2.36;100.00
43119;BME280;28729;49.838;8.650;2023-12-04T21:22:35;98567.19;;;2.38;100.00
43119;BME280;28729;49.838;8.650;2023-12-04T21:26:39;98564.47;;;2.38;100.00
43119;BME280;28729;49.838;8.650;2023-12-04T21:30:48;98559.03;;;2.38;100.00